Time;durP1;ratioP1;P1;durP2;ratioP2;P2;SDS_P1;SDS_P2;PMS_P1;PMS_P2;Temp;Humidity;BMP_temperature;BMP_pressure;BME280_temperature;BME280_humidity;BME280_pressure;Samples;Min_cycle;Max_cycle;Signal;HPM_P1;HPM_P2
2022/05/07 00:01:59;;;;;;;4.85;3.60;;;11.20;99.90;;;;;;5129579;27;20046;-77
2022/05/07 00:04:25;;;;;;;4.35;3.25;;;11.20;99.90;;;;;;5130424;27;20038;-78
2022/05/07 00:06:51;;;;;;;4.25;3.10;;;11.20;99.90;;;;;;5130317;27;20442;-77
2022/05/07 00:09:18;;;;;;;4.13;3.15;;;11.30;99.90;;;;;;5133094;27;20050;-77
2022/05/07 00:11:46;;;;;;;4.03;2.83;;;11.30;99.90;;;;;;5130198;27;20474;-77
2022/05/07 00:14:11;;;;;;;3.72;2.95;;;11.30;99.90;;;;;;5112503;27;20161;-77
2022/05/07 00:19:21;;;;;;;4.65;3.70;;;11.40;99.90;;;;;;5127579;27;20039;-77
2022/05/07 00:21:47;;;;;;;4.72;3.58;;;11.50;99.90;;;;;;5129951;27;20153;-77
2022/05/07 00:24:12;;;;;;;4.53;3.60;;;11.50;99.90;;;;;;5130343;27;20074;-77
2022/05/07 00:26:38;;;;;;;5.30;3.83;;;11.50;99.90;;;;;;5112761;27;20093;-77
2022/05/07 00:29:04;;;;;;;4.93;4.00;;;11.60;99.90;;;;;;5123173;27;20043;-76
2022/05/07 00:31:29;;;;;;;4.95;3.85;;;11.60;99.90;;;;;;5120658;27;20030;-77
2022/05/07 00:33:55;;;;;;;5.95;4.28;;;11.60;99.90;;;;;;5128032;27;20130;-77
2022/05/07 00:36:21;;;;;;;4.20;3.42;;;11.60;99.90;;;;;;5127330;27;20047;-77
2022/05/07 00:38:46;;;;;;;4.32;3.40;;;11.60;99.90;;;;;;5129730;27;20047;-77
2022/05/07 00:41:12;;;;;;;5.53;4.15;;;11.60;99.90;;;;;;5127652;27;20066;-77
2022/05/07 00:43:42;;;;;;;4.97;3.88;;;11.60;99.90;;;;;;5130047;27;20058;-76
2022/05/07 00:46:08;;;;;;;5.32;4.10;;;11.60;99.90;;;;;;5128851;27;20046;-76
2022/05/07 00:48:34;;;;;;;;;;;11.60;99.90;;;;;;5129521;27;20099;-77
2022/05/07 00:53:47;;;;;;;6.00;4.68;;;11.70;99.90;;;;;;5127774;27;20051;-77
2022/05/07 00:56:12;;;;;;;5.07;3.78;;;11.70;99.90;;;;;;5127769;27;20088;-76
2022/05/07 00:58:39;;;;;;;5.07;3.83;;;11.70;99.90;;;;;;5127499;27;20772;-76
2022/05/07 01:01:04;;;;;;;4.72;3.75;;;11.70;99.90;;;;;;5131370;27;20046;-77
2022/05/07 01:03:31;;;;;;;4.28;3.65;;;11.70;99.90;;;;;;5115003;27;20043;-77
2022/05/07 01:05:57;;;;;;;6.00;3.90;;;11.70;99.90;;;;;;5132106;27;20446;-77
2022/05/07 01:08:25;;;;;;;4.93;4.00;;;11.70;99.90;;;;;;5146267;27;20157;-77
2022/05/07 01:10:51;;;;;;;6.35;4.38;;;11.80;99.90;;;;;;5116526;27;20039;-77
2022/05/07 01:13:18;;;;;;;5.25;4.10;;;11.80;99.90;;;;;;5135052;27;20031;-77
2022/05/07 01:15:47;;;;;;;;;;;11.90;99.90;;;;;;5137544;27;20398;-77
2022/05/07 01:18:13;;;;;;;5.88;3.90;;;11.90;99.90;;;;;;5117324;27;21258;-77
2022/05/07 01:20:39;;;;;;;5.43;4.15;;;12.00;99.90;;;;;;5131314;27;20039;-77
2022/05/07 01:23:05;;;;;;;4.70;3.45;;;12.00;99.90;;;;;;5116184;27;20053;-77
2022/05/07 01:25:32;;;;;;;5.75;4.00;;;12.10;99.90;;;;;;5135137;27;20045;-77
2022/05/07 01:27:58;;;;;;;6.97;5.30;;;12.10;99.90;;;;;;5129007;27;20141;-77
2022/05/07 01:30:25;;;;;;;6.30;4.50;;;12.10;99.90;;;;;;5130861;27;20095;-76
2022/05/07 01:32:51;;;;;;;5.82;4.30;;;12.00;99.90;;;;;;5132967;27;20039;-77
2022/05/07 01:35:16;;;;;;;5.65;4.43;;;12.10;99.90;;;;;;5132060;27;20072;-77
2022/05/07 01:37:42;;;;;;;5.82;4.72;;;12.10;99.90;;;;;;5132105;27;20351;-77
2022/05/07 01:40:08;;;;;;;5.35;4.20;;;12.10;99.90;;;;;;5132005;27;20059;-78
2022/05/07 01:42:34;;;;;;;5.57;4.35;;;12.10;99.90;;;;;;5130254;27;20043;-77
2022/05/07 01:45:01;;;;;;;4.95;3.83;;;12.20;99.90;;;;;;5132645;27;20050;-78
2022/05/07 01:50:11;;;;;;;4.63;3.72;;;12.20;99.90;;;;;;5131745;27;20077;-77
2022/05/07 01:52:37;;;;;;;5.07;3.90;;;12.20;99.90;;;;;;5132342;27;20067;-76
2022/05/07 01:55:04;;;;;;;4.13;3.25;;;12.20;99.90;;;;;;5114000;27;20031;-76
2022/05/07 01:57:30;;;;;;;4.72;3.85;;;12.20;99.90;;;;;;5136147;27;20046;-78
2022/05/07 01:59:56;;;;;;;;;;;12.20;99.90;;;;;;5115254;27;20042;-77
2022/05/07 02:02:21;;;;;;;7.97;5.07;;;12.20;99.90;;;;;;5131146;27;19923;-77
2022/05/07 02:04:48;;;;;;;6.13;4.40;;;12.20;99.90;;;;;;5105520;27;20469;-78
2022/05/07 02:07:14;;;;;;;7.85;5.28;;;12.20;99.90;;;;;;5140293;27;20375;-78
2022/05/07 02:09:39;;;;;;;6.43;4.22;;;12.20;99.90;;;;;;5132624;27;20045;-78
2022/05/07 02:12:05;;;;;;;6.25;4.40;;;12.30;99.90;;;;;;5133416;27;20068;-78
2022/05/07 02:14:32;;;;;;;5.40;4.30;;;12.20;99.90;;;;;;5130583;27;20043;-76
2022/05/07 02:16:58;;;;;;;6.05;4.47;;;12.30;99.90;;;;;;5113773;27;20068;-77
2022/05/07 02:19:24;;;;;;;5.43;4.00;;;12.20;99.90;;;;;;5096426;27;20039;-77
2022/05/07 02:21:49;;;;;;;5.40;3.83;;;12.30;99.90;;;;;;5131526;27;20129;-77
2022/05/07 02:24:15;;;;;;;5.63;4.28;;;12.30;99.90;;;;;;5132642;27;20121;-77
2022/05/07 02:26:42;;;;;;;6.50;4.40;;;12.30;99.90;;;;;;5129765;27;20047;-77
2022/05/07 02:29:09;;;;;;;6.97;5.05;;;12.40;99.90;;;;;;5133680;27;20042;-76
2022/05/07 02:31:35;;;;;;;7.75;5.10;;;12.40;99.90;;;;;;5113105;27;20050;-77
2022/05/07 02:34:01;;;;;;;6.22;4.88;;;12.40;99.90;;;;;;5106545;27;20038;-76
2022/05/07 02:36:27;;;;;;;7.38;5.32;;;12.40;99.90;;;;;;5132031;27;20481;-77
2022/05/07 02:38:54;;;;;;;8.13;5.78;;;12.40;99.90;;;;;;5138469;27;20039;-77
2022/05/07 02:44:04;;;;;;;6.40;4.82;;;12.50;99.90;;;;;;5129810;27;20051;-77
2022/05/07 02:46:30;;;;;;;5.80;4.80;;;12.50;99.90;;;;;;5113540;27;20043;-77
2022/05/07 02:48:55;;;;;;;5.25;4.63;;;12.40;99.90;;;;;;5130230;27;20054;-77
2022/05/07 02:51:21;;;;;;;7.68;5.35;;;12.40;99.90;;;;;;5129918;27;20066;-77
2022/05/07 02:53:47;;;;;;;6.60;5.18;;;12.50;99.90;;;;;;5130435;27;20192;-76
2022/05/07 02:56:13;;;;;;;6.55;5.00;;;12.40;99.90;;;;;;5115761;27;20079;-76
2022/05/07 02:58:39;;;;;;;5.72;4.20;;;12.40;99.90;;;;;;5094697;27;20127;-77
2022/05/07 03:01:04;;;;;;;8.13;5.88;;;12.40;99.90;;;;;;5130267;27;20126;-77
2022/05/07 03:03:30;;;;;;;7.15;5.22;;;12.40;99.90;;;;;;5130895;27;20031;-77
2022/05/07 03:05:58;;;;;;;6.55;5.15;;;12.40;99.90;;;;;;5128030;27;20050;-77
2022/05/07 03:08:24;;;;;;;6.63;5.63;;;12.40;99.90;;;;;;5112164;27;20095;-76
2022/05/07 03:10:51;;;;;;;7.43;5.60;;;12.40;99.90;;;;;;5112614;27;20402;-78
2022/05/07 03:13:17;;;;;;;4.80;4.10;;;12.40;99.90;;;;;;5132685;27;20035;-78
2022/05/07 03:15:42;;;;;;;5.35;3.90;;;12.30;99.90;;;;;;5131069;27;20496;-78
2022/05/07 03:18:08;;;;;;;4.72;4.07;;;12.30;99.90;;;;;;5129813;27;20153;-77
2022/05/07 03:20:34;;;;;;;4.90;3.55;;;12.30;99.90;;;;;;5128904;27;20133;-77
2022/05/07 03:23:00;;;;;;;4.43;3.65;;;12.30;99.90;;;;;;5129514;27;20074;-78
2022/05/07 03:25:26;;;;;;;4.40;3.72;;;12.20;99.90;;;;;;5130197;27;20046;-77
2022/05/07 03:27:52;;;;;;;5.40;4.05;;;12.20;99.90;;;;;;5131859;27;20039;-77
2022/05/07 03:30:17;;;;;;;6.47;4.70;;;12.20;99.90;;;;;;5131694;27;20060;-77
2022/05/07 03:32:43;;;;;;;6.70;4.45;;;12.20;99.90;;;;;;5129622;27;20042;-77
2022/05/07 03:35:09;;;;;;;6.32;4.80;;;12.20;99.90;;;;;;5137645;27;20474;-76
2022/05/07 03:37:34;;;;;;;5.68;4.85;;;12.10;99.90;;;;;;5128864;27;20042;-77
2022/05/07 03:40:00;;;;;;;6.18;4.90;;;12.10;99.90;;;;;;5106414;27;20035;-76
2022/05/07 03:42:27;;;;;;;4.72;4.10;;;12.10;99.90;;;;;;5105447;27;20065;-77
2022/05/07 03:44:53;;;;;;;5.15;4.45;;;12.10;99.90;;;;;;5130621;27;20050;-76
2022/05/07 03:47:19;;;;;;;5.63;4.70;;;12.10;99.90;;;;;;5117340;27;20043;-77
2022/05/07 03:49:44;;;;;;;7.38;5.80;;;12.10;99.90;;;;;;5130646;27;20062;-77
2022/05/07 03:54:54;;;;;;;9.07;7.15;;;12.00;99.90;;;;;;5131279;27;20415;-77
2022/05/07 03:57:20;;;;;;;11.68;7.78;;;12.00;99.90;;;;;;5131677;27;20035;-77
2022/05/07 03:59:46;;;;;;;10.32;7.38;;;11.90;99.90;;;;;;5095530;27;20034;-77
2022/05/07 04:02:11;;;;;;;8.50;6.93;;;11.90;99.90;;;;;;5126880;27;20051;-77
2022/05/07 04:04:37;;;;;;;7.57;5.72;;;11.80;99.90;;;;;;5128137;27;20043;-76
2022/05/07 04:07:04;;;;;;;5.95;4.80;;;11.80;99.90;;;;;;5126498;27;20083;-76
2022/05/07 04:09:30;;;;;;;6.03;5.10;;;11.80;99.90;;;;;;5125426;27;20161;-77
2022/05/07 04:11:55;;;;;;;6.78;5.28;;;11.80;99.90;;;;;;5131709;27;20129;-77
2022/05/07 04:14:21;;;;;;;5.93;4.95;;;11.80;99.90;;;;;;5129754;27;20031;-76
2022/05/07 04:16:47;;;;;;;5.60;4.50;;;11.70;99.90;;;;;;5130751;27;20111;-77
2022/05/07 04:19:13;;;;;;;6.30;4.45;;;11.80;99.90;;;;;;5111392;27;20070;-76
2022/05/07 04:21:39;;;;;;;4.95;3.95;;;11.80;99.90;;;;;;5129197;27;20110;-76
2022/05/07 04:24:06;;;;;;;4.85;3.63;;;11.80;99.90;;;;;;5110797;27;20078;-77
2022/05/07 04:26:31;;;;;;;4.57;3.58;;;11.80;99.90;;;;;;5127617;27;20493;-76
2022/05/07 04:28:57;;;;;;;4.97;3.55;;;11.80;99.90;;;;;;5131026;27;20039;-76
2022/05/07 04:31:24;;;;;;;4.82;3.65;;;11.80;99.90;;;;;;5127635;27;20043;-76
2022/05/07 04:33:50;;;;;;;4.88;3.60;;;11.90;99.90;;;;;;5131934;27;20471;-76
2022/05/07 04:36:16;;;;;;;5.40;4.43;;;11.90;99.90;;;;;;5110214;27;20074;-76
2022/05/07 04:38:42;;;;;;;4.38;3.97;;;11.90;99.90;;;;;;5109805;27;20067;-76
2022/05/07 04:41:07;;;;;;;5.53;4.28;;;11.90;99.90;;;;;;5129931;27;20042;-78
2022/05/07 04:43:33;;;;;;;5.35;4.07;;;11.90;99.90;;;;;;5132434;27;20035;-76
2022/05/07 04:45:59;;;;;;;4.85;3.80;;;11.90;99.90;;;;;;5129877;27;20039;-78
2022/05/07 04:48:24;;;;;;;5.40;4.10;;;12.00;99.90;;;;;;5127131;27;20054;-78
2022/05/07 04:50:50;;;;;;;6.07;5.03;;;12.00;99.90;;;;;;5111635;27;20043;-77
2022/05/07 04:53:16;;;;;;;6.13;5.35;;;12.00;99.90;;;;;;5130993;27;20122;-77
2022/05/07 04:55:41;;;;;;;6.15;4.63;;;12.00;99.90;;;;;;5128343;27;20035;-77
2022/05/07 04:58:07;;;;;;;4.70;3.75;;;12.00;99.90;;;;;;5127727;27;20035;-76
2022/05/07 05:00:33;;;;;;;6.90;5.97;;;12.00;99.90;;;;;;5129093;27;20130;-76
2022/05/07 05:02:58;;;;;;;7.47;5.82;;;12.10;99.90;;;;;;5131109;27;20129;-76
2022/05/07 05:05:27;;;;;;;5.63;4.45;;;12.10;99.90;;;;;;5113818;27;20039;-76
2022/05/07 05:07:52;;;;;;;6.55;4.35;;;12.10;99.90;;;;;;5129841;27;20553;-76
2022/05/07 05:10:19;;;;;;;6.82;5.47;;;12.20;99.90;;;;;;5117397;27;20126;-77
2022/05/07 05:12:45;;;;;;;6.78;5.50;;;12.20;99.90;;;;;;5112653;27;20047;-77
2022/05/07 05:15:11;;;;;;;8.85;6.15;;;12.20;99.90;;;;;;5112568;27;20470;-78
2022/05/07 05:17:37;;;;;;;9.32;6.85;;;12.30;99.90;;;;;;5112994;27;20027;-78
2022/05/07 05:20:05;;;;;;;8.85;7.28;;;12.30;99.90;;;;;;5103520;27;20497;-78
2022/05/07 05:22:31;;;;;;;7.05;5.90;;;12.30;99.90;;;;;;5129973;27;20049;-76
2022/05/07 05:24:57;;;;;;;6.32;5.07;;;12.40;99.90;;;;;;5127882;27;20569;-76
2022/05/07 05:27:23;;;;;;;8.30;7.03;;;12.40;99.90;;;;;;5125820;27;20047;-75
2022/05/07 05:29:49;;;;;;;10.50;8.30;;;12.40;99.90;;;;;;5128608;27;20466;-76
2022/05/07 05:32:17;;;;;;;9.15;7.50;;;12.50;99.90;;;;;;5111459;27;20042;-75
2022/05/07 05:34:53;;;;;;;10.30;7.50;;;12.50;99.90;;;;;;5127172;27;20046;-75
2022/05/07 05:37:19;;;;;;;6.55;5.40;;;12.50;99.90;;;;;;5127560;27;20442;-76
2022/05/07 05:39:45;;;;;;;7.80;6.38;;;12.50;99.90;;;;;;5112559;27;20126;-75
2022/05/07 05:42:12;;;;;;;7.85;6.32;;;12.60;99.90;;;;;;5126572;27;20184;-76
2022/05/07 05:44:39;;;;;;;6.07;5.35;;;12.60;99.90;;;;;;5127849;27;20492;-75
2022/05/07 05:47:05;;;;;;;4.75;3.90;;;12.60;99.90;;;;;;5126597;27;20039;-75
2022/05/07 05:49:31;;;;;;;3.92;3.38;;;12.70;99.90;;;;;;5132516;27;20039;-75
2022/05/07 05:51:57;;;;;;;3.10;2.70;;;12.70;99.90;;;;;;5135119;27;20046;-75
2022/05/07 05:54:24;;;;;;;3.85;3.25;;;12.70;99.90;;;;;;5133371;27;20031;-77
2022/05/07 05:56:51;;;;;;;6.10;5.05;;;12.70;99.90;;;;;;5135829;27;20150;-77
2022/05/07 05:59:17;;;;;;;5.43;4.78;;;12.80;99.90;;;;;;5137744;27;20039;-82
2022/05/07 06:01:42;;;;;;;5.88;5.22;;;12.80;99.90;;;;;;5098904;27;20034;-77
2022/05/07 06:04:08;;;;;;;5.35;4.25;;;12.90;99.90;;;;;;5136005;27;20106;-77
2022/05/07 06:06:34;;;;;;;5.53;4.80;;;13.00;99.90;;;;;;5116051;27;20055;-78
2022/05/07 06:08:59;;;;;;;4.60;3.80;;;13.10;99.90;;;;;;5123386;27;20406;-78
2022/05/07 06:11:25;;;;;;;10.70;9.30;;;13.40;99.90;;;;;;5131515;27;20043;-78
2022/05/07 06:13:51;;;;;;;10.00;7.78;;;13.40;99.90;;;;;;5135330;27;20224;-78
2022/05/07 06:16:17;;;;;;;9.75;8.43;;;13.60;99.90;;;;;;5119780;27;20035;-78
2022/05/07 06:18:43;;;;;;;7.53;6.40;;;13.70;99.90;;;;;;5117785;27;20046;-77
2022/05/07 06:21:09;;;;;;;6.30;5.40;;;13.70;99.90;;;;;;5114115;27;20053;-78
2022/05/07 06:23:35;;;;;;;5.18;4.55;;;13.80;99.90;;;;;;5118763;27;20039;-78
2022/05/07 06:28:44;;;;;;;7.47;5.60;;;13.90;99.90;;;;;;5140100;27;20050;-78
2022/05/07 06:31:13;;;;;;;6.07;4.75;;;14.00;99.90;;;;;;5118534;27;20059;-78
2022/05/07 06:33:39;;;;;;;4.60;4.00;;;14.00;99.90;;;;;;5133692;27;20805;-76
2022/05/07 06:36:08;;;;;;;5.40;4.20;;;14.10;99.90;;;;;;5142802;27;20401;-76
2022/05/07 06:38:34;;;;;;;6.97;5.88;;;14.20;99.90;;;;;;5114964;27;20031;-76
2022/05/07 06:41:02;;;;;;;8.05;6.57;;;14.30;99.90;;;;;;5124589;27;20078;-76
2022/05/07 06:43:34;;;;;;;7.85;6.30;;;14.50;99.90;;;;;;5129886;27;20043;-77
2022/05/07 06:46:01;;;;;;;5.20;4.70;;;14.60;99.90;;;;;;5131157;27;20638;-76
2022/05/07 06:48:27;;;;;;;6.95;5.50;;;14.60;99.90;;;;;;5130355;27;20063;-75
2022/05/07 06:50:54;;;;;;;5.95;5.15;;;14.60;99.90;;;;;;5148986;27;20047;-76
2022/05/07 06:53:20;;;;;;;6.15;4.95;;;14.70;99.90;;;;;;5129024;27;20031;-76
2022/05/07 06:55:55;;;;;;;4.68;4.07;;;14.80;99.90;;;;;;5128761;27;20043;-76
2022/05/07 06:58:28;;;;;;;5.35;4.85;;;14.90;99.90;;;;;;5133692;27;20039;-77
2022/05/07 07:00:54;;;;;;;5.72;4.72;;;15.10;99.90;;;;;;5117667;27;20039;-77
2022/05/07 07:03:20;;;;;;;6.18;5.00;;;15.40;99.90;;;;;;5114532;27;20043;-77
2022/05/07 07:05:47;;;;;;;7.13;6.28;;;15.50;99.90;;;;;;5132076;27;20042;-77
2022/05/07 07:08:14;;;;;;;15.70;13.10;;;15.50;99.90;;;;;;5136145;27;20050;-77
2022/05/07 07:10:43;;;;;;;14.30;12.20;;;15.30;99.90;;;;;;5133198;27;20123;-77
2022/05/07 07:13:09;;;;;;;11.98;10.13;;;15.30;99.90;;;;;;5121998;27;20084;-77
2022/05/07 07:15:39;;;;;;;12.43;10.73;;;15.50;99.90;;;;;;5116704;27;20047;-77
2022/05/07 07:18:12;;;;;;;10.02;8.73;;;15.60;99.90;;;;;;5120531;27;20050;-78
2022/05/07 07:20:42;;;;;;;13.85;11.27;;;15.70;99.90;;;;;;5130951;27;20130;-77
2022/05/07 07:23:12;;;;;;;11.95;9.93;;;15.60;99.90;;;;;;5138389;27;20477;-77
2022/05/07 07:25:42;;;;;;;8.77;7.88;;;15.60;99.90;;;;;;5134560;27;20064;-77
2022/05/07 07:28:08;;;;;;;9.63;7.93;;;15.70;99.90;;;;;;5132195;27;20031;-77
2022/05/07 07:30:35;;;;;;;8.02;7.20;;;15.80;99.90;;;;;;5131312;27;20034;-78
2022/05/07 07:33:00;;;;;;;;;;;16.10;99.90;;;;;;5133677;27;20038;-77
2022/05/07 07:35:28;;;;;;;13.60;11.45;;;16.10;99.90;;;;;;5129520;27;20352;-77
2022/05/07 07:37:54;;;;;;;13.18;11.43;;;16.00;99.90;;;;;;5135678;27;20080;-78
2022/05/07 07:40:20;;;;;;;17.50;13.60;;;15.90;99.90;;;;;;5140107;27;20039;-77
2022/05/07 07:42:45;;;;;;;11.82;10.02;;;15.80;99.90;;;;;;5135412;27;20475;-77
2022/05/07 07:47:59;;;;;;;15.02;12.93;;;16.00;99.90;;;;;;5135482;27;20134;-77
2022/05/07 07:50:29;;;;;;;15.48;13.10;;;16.00;99.90;;;;;;5131284;27;20055;-76
2022/05/07 07:52:56;;;;;;;12.43;10.25;;;16.00;99.90;;;;;;5140116;27;20042;-76
2022/05/07 07:55:22;;;;;;;8.90;7.80;;;16.20;99.90;;;;;;5132732;27;20163;-76
2022/05/07 07:57:49;;;;;;;9.13;7.38;;;16.30;99.90;;;;;;5133336;27;20070;-77
2022/05/07 08:00:16;;;;;;;12.35;10.07;;;16.40;99.90;;;;;;5132808;27;20043;-76
2022/05/07 08:02:56;;;;;;;10.82;9.73;;;16.40;99.90;;;;;;5130120;27;20038;-77
2022/05/07 08:05:27;;;;;;;8.27;6.53;;;16.30;99.90;;;;;;5133998;27;20057;-76
2022/05/07 08:13:22;;;;;;;13.35;11.35;;;16.50;99.90;;;;;;5133112;27;20133;-77
2022/05/07 08:15:48;;;;;;;10.23;8.95;;;16.50;99.90;;;;;;5130410;27;20103;-77
2022/05/07 08:18:14;;;;;;;8.40;7.57;;;16.30;99.90;;;;;;5130089;27;20043;-76
2022/05/07 08:20:41;;;;;;;9.23;7.82;;;16.40;99.90;;;;;;5135771;27;20039;-78
2022/05/07 08:23:08;;;;;;;10.77;8.45;;;16.40;99.90;;;;;;5134083;27;20058;-79
2022/05/07 08:25:34;;;;;;;10.93;9.30;;;16.40;99.90;;;;;;5130680;27;20046;-78
2022/05/07 08:28:00;;;;;;;14.75;11.40;;;16.30;99.90;;;;;;5134114;27;20094;-77
2022/05/07 08:30:26;;;;;;;16.17;12.23;;;16.40;99.90;;;;;;5135679;27;20043;-77
2022/05/07 08:32:51;;;;;;;16.25;11.77;;;16.40;99.90;;;;;;5134183;27;20041;-77
2022/05/07 08:35:18;;;;;;;10.93;8.20;;;16.30;99.90;;;;;;5134454;27;20042;-78
2022/05/07 08:37:45;;;;;;;11.73;9.93;;;16.40;99.90;;;;;;5133298;27;20051;-78
2022/05/07 08:40:14;;;;;;;13.85;11.07;;;16.40;99.90;;;;;;5120323;27;20061;-77
2022/05/07 08:42:40;;;;;;;11.40;8.75;;;16.40;99.90;;;;;;5131118;27;20334;-79
2022/05/07 08:45:06;;;;;;;10.98;8.57;;;16.50;99.90;;;;;;5106640;27;20103;-78
2022/05/07 08:47:32;;;;;;;;;;;16.60;99.90;;;;;;5131616;27;20090;-78
2022/05/07 08:49:58;;;;;;;21.13;14.68;;;16.70;99.90;;;;;;5119359;27;19971;-78
2022/05/07 08:52:24;;;;;;;;;;;16.50;99.90;;;;;;5133707;27;20460;-77
2022/05/07 08:54:50;;;;;;;20.17;16.65;;;16.50;99.90;;;;;;5132381;27;19915;-77
2022/05/07 08:57:16;;;;;;;19.15;14.30;;;16.40;99.90;;;;;;5151498;27;20091;-77
2022/05/07 08:59:43;;;;;;;;;;;16.40;99.90;;;;;;5132464;27;20051;-77
2022/05/07 09:02:09;;;;;;;17.98;14.35;;;16.30;99.90;;;;;;5130898;27;19915;-77
2022/05/07 09:04:36;;;;;;;24.05;17.27;;;16.40;99.90;;;;;;5129405;27;20463;-78
2022/05/07 09:07:05;;;;;;;23.58;18.50;;;16.30;99.90;;;;;;5130692;27;20108;-75
2022/05/07 09:09:31;;;;;;;23.38;17.90;;;16.30;99.90;;;;;;5129724;27;20072;-75
2022/05/07 09:11:58;;;;;;;28.05;20.60;;;16.30;99.90;;;;;;5133539;27;20130;-75
2022/05/07 09:14:31;;;;;;;23.48;17.27;;;16.20;99.90;;;;;;5110321;27;20035;-75
2022/05/07 09:17:00;;;;;;;18.98;14.07;;;16.30;99.90;;;;;;5132899;27;20043;-75
2022/05/07 09:19:30;;;;;;;17.45;13.57;;;16.20;99.90;;;;;;5106191;27;20043;-76
2022/05/07 09:22:07;;;;;;;17.88;13.40;;;16.30;99.90;;;;;;5116065;27;20102;-77
2022/05/07 09:24:33;;;;;;;;;;;16.30;99.90;;;;;;5131660;27;20457;-76
2022/05/07 09:26:58;;;;;;;18.95;14.98;;;16.40;99.90;;;;;;5134358;27;19919;-76
2022/05/07 09:29:28;;;;;;;15.75;11.70;;;16.40;99.90;;;;;;5150047;27;20113;-76
2022/05/07 09:31:54;;;;;;;16.38;11.15;;;16.40;99.90;;;;;;5134196;27;20083;-79
2022/05/07 09:37:18;;;;;;;16.75;12.93;;;16.30;99.90;;;;;;5116524;27;20046;-78
2022/05/07 09:39:52;;;;;;;17.05;13.38;;;16.40;99.90;;;;;;5130798;27;20129;-78
2022/05/07 09:42:22;;;;;;;19.17;13.77;;;16.50;99.90;;;;;;5152146;27;20116;-78
2022/05/07 09:44:48;;;;;;;19.65;14.27;;;16.50;99.90;;;;;;5114962;27;20047;-78
2022/05/07 09:47:14;;;;;;;;;;;16.60;99.90;;;;;;5132646;27;20053;-81
2022/05/07 09:52:29;;;;;;;16.98;12.55;;;16.80;99.90;;;;;;5134756;27;20038;-76
2022/05/07 09:57:41;;;;;;;23.15;15.70;;;17.10;99.90;;;;;;5130012;27;20035;-77
2022/05/07 10:00:10;;;;;;;19.38;14.55;;;17.10;99.90;;;;;;5135613;27;20050;-77
2022/05/07 10:03:03;;;;;;;21.60;16.27;;;17.10;99.90;;;;;;5114782;27;20789;-76
2022/05/07 10:05:31;;;;;;;19.45;14.45;;;17.10;99.90;;;;;;5136922;27;20126;-77
2022/05/07 10:08:09;;;;;;;17.67;13.73;;;17.10;99.90;;;;;;5137082;27;20385;-77
2022/05/07 10:10:37;;;;;;;16.73;12.90;;;17.40;99.90;;;;;;5130254;27;20043;-76
2022/05/07 10:13:07;;;;;;;17.23;13.30;;;17.60;99.90;;;;;;5130806;27;20081;-76
2022/05/07 10:15:33;;;;;;;16.35;12.70;;;17.60;99.90;;;;;;5132584;27;20534;-77
2022/05/07 10:18:07;;;;;;;;;;;17.60;99.90;;;;;;5113825;27;20035;-76
2022/05/07 10:20:40;;;;;;;13.57;10.52;;;17.40;99.90;;;;;;5113094;27;19926;-76
2022/05/07 10:23:08;;;;;;;13.65;11.05;;;17.60;99.90;;;;;;5120398;27;20037;-77
2022/05/07 10:25:34;;;;;;;13.10;10.35;;;17.50;99.90;;;;;;5132832;27;20156;-77
2022/05/07 10:28:15;;;;;;;11.43;9.45;;;17.70;99.90;;;;;;5131591;27;20046;-76
2022/05/07 10:30:59;;;;;;;18.15;14.65;;;17.80;99.90;;;;;;5130104;27;20042;-76
2022/05/07 10:33:25;;;;;;;18.02;14.10;;;17.60;99.90;;;;;;5132409;27;20414;-76
2022/05/07 10:35:55;;;;;;;16.13;13.18;;;17.60;99.90;;;;;;5134724;27;20125;-76
2022/05/07 10:38:37;;;;;;;16.20;11.13;;;17.40;99.90;;;;;;5135924;27;20043;-76
2022/05/07 10:41:28;;;;;;;18.23;12.82;;;17.30;99.90;;;;;;5133033;27;20049;-77
2022/05/07 10:43:56;;;;;;;22.20;16.95;;;17.20;99.90;;;;;;5138329;27;20085;-76
2022/05/07 10:46:22;;;;;;;13.70;10.48;;;16.90;99.90;;;;;;5137022;27;20047;-77
2022/05/07 10:48:57;;;;;;;17.73;12.48;;;16.80;99.90;;;;;;5135121;27;20509;-77
2022/05/07 10:51:34;;;;;;;22.38;16.90;;;16.80;99.90;;;;;;5129366;27;20059;-76
2022/05/07 10:54:05;;;;;;;24.10;17.67;;;16.60;99.90;;;;;;5138211;27;20098;-76
2022/05/07 10:56:33;;;;;;;27.95;19.10;;;16.60;99.90;;;;;;5134694;27;20122;-76
2022/05/07 10:58:59;;;;;;;25.15;17.33;;;16.70;99.90;;;;;;5131358;27;20371;-76
2022/05/07 11:01:27;;;;;;;30.52;21.45;;;16.70;99.90;;;;;;5113617;27;20126;-75
2022/05/07 11:04:08;;;;;;;25.83;18.52;;;16.70;99.90;;;;;;5130725;27;20054;-75
2022/05/07 11:06:49;;;;;;;21.88;16.17;;;16.80;99.90;;;;;;5112072;27;20132;-76
2022/05/07 11:09:16;;;;;;;24.42;18.55;;;17.00;99.90;;;;;;5132148;27;20057;-76
2022/05/07 11:11:46;;;;;;;21.80;16.50;;;16.90;99.90;;;;;;5135025;27;20486;-76
2022/05/07 11:14:26;;;;;;;21.95;16.38;;;16.80;99.90;;;;;;5115706;27;20059;-76
2022/05/07 11:16:57;;;;;;;20.48;15.02;;;16.60;99.90;;;;;;5114080;27;20428;-75
2022/05/07 11:19:30;;;;;;;15.50;11.85;;;16.70;99.90;;;;;;5141512;27;20038;-75
2022/05/07 11:21:57;;;;;;;23.33;16.00;;;16.70;99.90;;;;;;5134686;27;20053;-75
2022/05/07 11:24:25;;;;;;;20.58;15.30;;;16.40;99.90;;;;;;5134762;27;20031;-75
2022/05/07 11:27:11;;;;;;;18.13;13.80;;;16.20;99.90;;;;;;5134963;27;20023;-75
2022/05/07 11:29:39;;;;;;;18.45;12.40;;;16.20;99.90;;;;;;5136305;27;20042;-75
2022/05/07 11:32:07;;;;;;;18.17;13.25;;;16.20;99.90;;;;;;5137625;27;20045;-75
2022/05/07 11:34:33;;;;;;;15.93;11.05;;;16.30;99.90;;;;;;5115363;27;20118;-76
2022/05/07 11:37:09;;;;;;;11.57;9.55;;;16.40;99.90;;;;;;5128352;27;20361;-75
2022/05/07 11:39:58;;;;;;;11.55;9.10;;;16.60;99.90;;;;;;5115012;27;20107;-75
2022/05/07 11:42:38;;;;;;;11.55;7.90;;;16.80;99.90;;;;;;5141291;27;20121;-76
2022/05/07 11:45:27;;;;;;;13.15;9.30;;;17.30;99.90;;;;;;5113455;27;20031;-74
2022/05/07 11:47:57;;;;;;;12.52;8.60;;;17.40;99.90;;;;;;5130740;27;20046;-74
2022/05/07 11:50:28;;;;;;;10.48;7.78;;;17.40;99.90;;;;;;5114362;27;20134;-74
2022/05/07 11:52:54;;;;;;;9.10;5.85;;;17.30;99.90;;;;;;5130761;27;20066;-75
2022/05/07 11:55:29;;;;;;;6.18;4.70;;;16.90;99.90;;;;;;5136376;27;20103;-75
2022/05/07 11:57:55;;;;;;;6.55;4.95;;;16.90;99.90;;;;;;5135893;27;20549;-76
2022/05/07 12:00:27;;;;;;;6.63;4.45;;;16.80;99.90;;;;;;5131749;27;20525;-76
2022/05/07 12:03:00;;;;;;;7.10;5.47;;;17.00;99.90;;;;;;5131784;27;20046;-75
2022/05/07 12:05:37;;;;;;;8.73;6.07;;;16.90;99.90;;;;;;5113456;27;20521;-76
2022/05/07 12:08:21;;;;;;;8.30;5.53;;;16.80;99.90;;;;;;5129803;27;20490;-76
2022/05/07 12:10:49;;;;;;;6.72;5.28;;;16.80;99.90;;;;;;5133970;27;20521;-77
2022/05/07 12:13:18;;;;;;;5.88;4.95;;;16.90;99.90;;;;;;5141672;27;20043;-76
2022/05/07 12:18:32;;;;;;;7.47;5.53;;;17.00;99.90;;;;;;5141176;27;20086;-76
2022/05/07 12:20:58;;;;;;;7.25;5.95;;;16.80;99.90;;;;;;5106994;27;20043;-76
2022/05/07 12:31:52;;;;;;;10.35;6.18;;;16.90;99.90;;;;;;5135909;27;20039;-77
2022/05/07 12:34:19;;;;;;;8.65;5.55;;;16.80;99.90;;;;;;5133299;27;20074;-77
2022/05/07 12:36:48;;;;;;;7.97;5.55;;;16.80;99.90;;;;;;5132647;27;20081;-77
2022/05/07 12:39:14;;;;;;;7.68;5.30;;;16.90;99.90;;;;;;5138844;27;20031;-76
2022/05/07 12:41:41;;;;;;;10.52;5.80;;;17.10;99.90;;;;;;5131610;27;20150;-77
2022/05/07 12:44:07;;;;;;;9.02;6.47;;;17.30;99.90;;;;;;5134329;27;20070;-77
2022/05/07 12:46:33;;;;;;;;;;;17.30;99.90;;;;;;5117699;27;20070;-77
2022/05/07 12:48:58;;;;;;;12.45;9.05;;;17.30;99.90;;;;;;5132742;27;19963;-77
2022/05/07 12:51:27;;;;;;;13.70;10.52;;;17.30;99.90;;;;;;5132654;27;20057;-77
2022/05/07 12:53:54;;;;;;;10.38;8.40;;;17.10;99.90;;;;;;5134241;27;20079;-77
2022/05/07 12:56:19;;;;;;;13.45;10.93;;;17.10;99.90;;;;;;5117093;27;20030;-78
2022/05/07 12:58:47;;;;;;;14.43;10.70;;;17.20;99.90;;;;;;5141887;27;20053;-76
2022/05/07 13:01:13;;;;;;;12.27;9.80;;;17.10;99.90;;;;;;5140307;27;20057;-77
2022/05/07 13:03:39;;;;;;;14.15;9.68;;;17.30;99.90;;;;;;5136559;27;20058;-77
2022/05/07 13:06:04;;;;;;;;;;;17.50;99.90;;;;;;5137178;27;20102;-77
2022/05/07 13:08:30;;;;;;;13.93;10.48;;;17.50;99.90;;;;;;5133564;27;20373;-77
2022/05/07 13:10:57;;;;;;;11.75;9.02;;;17.40;99.90;;;;;;5139513;27;20051;-76
2022/05/07 13:13:24;;;;;;;12.45;9.65;;;17.30;99.90;;;;;;5134955;27;20069;-76
2022/05/07 13:15:51;;;;;;;11.68;8.35;;;17.30;99.90;;;;;;5132715;27;20114;-77
2022/05/07 13:18:17;;;;;;;8.70;6.38;;;17.40;99.90;;;;;;5137599;27;20099;-77
2022/05/07 13:20:43;;;;;;;;;;;17.60;99.90;;;;;;5118227;27;20405;-76
2022/05/07 13:23:12;;;;;;;9.18;6.57;;;17.60;99.90;;;;;;5133306;27;19920;-76
2022/05/07 13:25:38;;;;;;;9.20;6.85;;;17.70;99.90;;;;;;5135212;27;20035;-77
2022/05/07 13:28:04;;;;;;;;;;;17.80;99.90;;;;;;5136094;27;20035;-76
2022/05/07 13:30:30;;;;;;;8.02;6.47;;;17.80;99.90;;;;;;5117786;27;19925;-76
2022/05/07 13:32:56;;;;;;;7.22;6.05;;;17.90;99.90;;;;;;5134639;27;20039;-77